createdAt,value
2022-12-24T00:02:47.961Z,80.31
2022-12-24T00:07:53.676Z,80.03
2022-12-24T00:12:59.129Z,80.19
2022-12-24T00:18:04.646Z,79.68
2022-12-24T00:23:10.111Z,79.99
2022-12-24T00:28:17.004Z,79.66
2022-12-24T00:33:24.792Z,79.68
2022-12-24T00:38:29.958Z,79.65
2022-12-24T00:43:35.458Z,79.37
2022-12-24T00:48:40.975Z,79.03
2022-12-24T00:53:46.433Z,79.03
2022-12-24T00:58:51.890Z,79.00
2022-12-24T01:03:59.536Z,79.01
2022-12-24T01:09:05.419Z,78.74
2022-12-24T01:14:11.032Z,79.13
2022-12-24T01:19:16.413Z,79.07
2022-12-24T01:24:21.924Z,78.79
2022-12-24T01:29:27.549Z,78.65
2022-12-24T01:34:32.975Z,78.58
2022-12-24T01:39:38.505Z,78.71
2022-12-24T01:44:46.776Z,78.32
2022-12-24T01:49:55.212Z,78.27
2022-12-24T01:55:03.642Z,78.48
2022-12-24T02:00:12.581Z,78.63
2022-12-24T02:05:26.661Z,78.39
2022-12-24T02:10:32.483Z,78.47
2022-12-24T02:15:57.956Z,78.49
2022-12-24T02:21:12.561Z,78.41
2022-12-24T02:26:29.873Z,78.24
2022-12-24T02:31:47.003Z,78.17
2022-12-24T02:37:07.757Z,78.04
2022-12-24T02:42:16.324Z,78.22
2022-12-24T02:47:24.768Z,78.44
2022-12-24T02:52:38.883Z,78.32
2022-12-24T02:58:02.476Z,78.25
2022-12-24T03:03:20.025Z,78.26
2022-12-24T03:08:45.301Z,78.23
2022-12-24T03:13:52.127Z,78.17
2022-12-24T03:18:59.789Z,78.11
2022-12-24T03:24:05.787Z,77.88
2022-12-24T03:29:11.230Z,77.80
2022-12-24T03:34:18.820Z,77.83
2022-12-24T03:39:24.792Z,78.07
2022-12-24T03:44:30.166Z,77.78
2022-12-24T03:49:35.824Z,78.16
2022-12-24T03:54:41.419Z,77.91
2022-12-24T03:59:46.945Z,78.10
2022-12-24T04:04:52.394Z,78.48
2022-12-24T04:09:57.788Z,78.07
2022-12-24T04:15:03.323Z,78.27
2022-12-24T04:20:09.848Z,78.42
2022-12-24T04:25:15.503Z,78.72
2022-12-24T04:30:21.126Z,78.56
2022-12-24T04:35:26.776Z,78.36
2022-12-24T04:40:32.240Z,78.90
2022-12-24T04:45:37.753Z,78.98
2022-12-24T04:50:43.212Z,78.70
2022-12-24T04:55:48.949Z,79.03
2022-12-24T05:00:54.848Z,78.75
2022-12-24T05:06:09.611Z,79.25
2022-12-24T05:11:16.034Z,79.38
2022-12-24T05:16:23.118Z,79.36
2022-12-24T05:21:28.649Z,79.52
2022-12-24T05:26:37.393Z,79.32
2022-12-24T05:31:45.130Z,79.32
2022-12-24T05:36:50.763Z,79.08
2022-12-24T05:41:56.181Z,78.51
2022-12-24T05:47:01.626Z,78.53
2022-12-24T05:52:07.172Z,78.69
2022-12-24T05:57:15.134Z,78.38
2022-12-24T06:02:20.752Z,78.42
2022-12-24T06:07:27.080Z,77.46
2022-12-24T06:12:32.593Z,77.36
2022-12-24T06:17:38.315Z,78.55
2022-12-24T06:22:43.754Z,78.55
2022-12-24T06:27:49.272Z,78.07
2022-12-24T06:32:54.668Z,78.01
2022-12-24T06:38:00.539Z,78.01
2022-12-24T06:43:06.171Z,77.79
2022-12-24T06:48:11.641Z,78.48
2022-12-24T06:53:17.089Z,78.48
2022-12-24T06:58:22.518Z,78.64
2022-12-24T07:03:28.009Z,78.16
2022-12-24T07:08:35.622Z,78.23
2022-12-24T07:13:41.133Z,78.23
2022-12-24T07:18:46.737Z,78.44
2022-12-24T07:23:52.187Z,78.38
2022-12-24T07:28:58.344Z,78.91
2022-12-24T07:34:03.785Z,78.64
2022-12-24T07:39:09.250Z,78.78
2022-12-24T07:44:15.683Z,78.78
2022-12-24T07:49:21.106Z,79.05
2022-12-24T07:54:26.650Z,79.05
2022-12-24T07:59:32.171Z,78.81
2022-12-24T08:04:37.622Z,78.69
2022-12-24T08:09:44.466Z,79.02
2022-12-24T08:14:49.981Z,79.15
2022-12-24T08:19:55.458Z,78.40
2022-12-24T08:25:00.950Z,78.40
2022-12-24T08:30:07.967Z,79.38
2022-12-24T08:35:13.350Z,79.26
2022-12-24T08:40:19.066Z,79.23
2022-12-24T08:45:24.528Z,79.31
2022-12-24T08:50:29.976Z,79.97
2022-12-24T08:55:35.468Z,79.70
2022-12-24T09:00:41.139Z,79.97
2022-12-24T09:05:46.566Z,80.08
2022-12-24T09:10:52.025Z,79.82
2022-12-24T09:15:57.648Z,79.58
2022-12-24T09:21:05.500Z,79.58
2022-12-24T09:26:22.971Z,79.49
2022-12-24T09:31:29.308Z,79.45
2022-12-24T09:36:35.994Z,79.34
2022-12-24T09:42:02.117Z,79.26
2022-12-24T09:47:13.361Z,78.87
2022-12-24T09:52:21.811Z,79.00
2022-12-24T09:57:32.842Z,78.89
2022-12-24T10:02:39.979Z,78.86
2022-12-24T10:07:57.497Z,78.86
2022-12-24T10:13:21.146Z,78.84
2022-12-24T10:18:33.339Z,78.81
2022-12-24T10:23:47.443Z,78.73
2022-12-24T10:29:09.248Z,78.91
2022-12-24T10:34:17.676Z,79.06
2022-12-24T10:39:26.219Z,78.90
2022-12-24T10:44:34.304Z,78.88
2022-12-24T10:49:42.826Z,78.58
2022-12-24T10:55:09.482Z,78.82
2022-12-24T11:00:25.955Z,78.45
2022-12-24T11:05:33.833Z,78.58
2022-12-24T11:10:42.317Z,78.56
2022-12-24T11:15:50.128Z,78.55
2022-12-24T11:20:57.495Z,78.37
2022-12-24T11:26:03.926Z,77.94
2022-12-24T11:31:24.318Z,78.30
2022-12-24T11:36:31.400Z,78.36
2022-12-24T11:41:40.766Z,78.38
2022-12-24T11:46:47.977Z,78.14
2022-12-24T11:52:14.629Z,78.43
2022-12-24T11:57:23.495Z,78.14
2022-12-24T12:02:32.018Z,77.89
2022-12-24T12:07:39.669Z,78.32
2022-12-24T12:13:09.750Z,77.94
2022-12-24T12:18:25.477Z,77.92
2022-12-24T12:23:45.479Z,78.11
2022-12-24T12:29:02.263Z,78.92
2022-12-24T12:34:16.831Z,78.13
2022-12-24T12:39:22.357Z,77.88
2022-12-24T12:44:45.493Z,78.08
2022-12-24T12:50:16.902Z,77.87
2022-12-24T12:55:30.914Z,78.01
2022-12-24T13:00:41.191Z,77.82
2022-12-24T13:05:55.071Z,77.91
2022-12-24T13:11:36.778Z,77.64
2022-12-24T13:16:51.500Z,77.59
2022-12-24T13:21:58.168Z,77.90
2022-12-24T13:27:18.462Z,78.03
2022-12-24T13:32:40.879Z,77.81
2022-12-24T13:37:46.758Z,77.84
2022-12-24T13:43:13.503Z,78.04
2022-12-24T13:48:34.185Z,78.11
2022-12-24T13:53:42.694Z,78.27
2022-12-24T13:58:50.781Z,78.22
2022-12-24T14:03:59.275Z,78.12
2022-12-24T14:09:10.732Z,78.20
2022-12-24T14:14:37.180Z,78.33
2022-12-24T14:19:45.605Z,78.70
2022-12-24T14:25:06.208Z,78.40
2022-12-24T14:30:23.359Z,78.58
2022-12-24T14:35:40.861Z,78.75
2022-12-24T14:41:09.161Z,79.10
2022-12-24T14:46:20.398Z,79.11
2022-12-24T14:51:28.950Z,79.24
2022-12-24T14:56:34.646Z,79.39
2022-12-24T15:01:40.326Z,79.08
2022-12-24T15:06:53.061Z,79.34
2022-12-24T15:12:03.072Z,79.28
2022-12-24T15:17:09.524Z,79.50
2022-12-24T15:22:24.274Z,79.60
2022-12-24T15:27:32.698Z,79.87
2022-12-24T15:32:38.162Z,79.98
2022-12-24T15:37:44.224Z,80.01
2022-12-24T15:42:50.280Z,80.32
2022-12-24T15:48:04.544Z,80.18
2022-12-24T15:53:19.843Z,80.24
2022-12-24T15:58:28.298Z,80.51
2022-12-24T16:03:34.299Z,80.48
2022-12-24T16:08:42.000Z,80.57
2022-12-24T16:14:05.741Z,80.71
2022-12-24T16:19:25.865Z,80.41
2022-12-24T16:24:32.573Z,80.80
2022-12-24T16:29:38.039Z,80.73
2022-12-24T16:34:43.503Z,80.98
2022-12-24T16:39:49.595Z,80.82
2022-12-24T16:44:55.696Z,80.76
2022-12-24T16:50:02.497Z,81.32
2022-12-24T16:55:08.593Z,81.29
2022-12-24T17:00:22.669Z,81.10
2022-12-24T17:05:28.575Z,81.72
2022-12-24T17:10:34.713Z,81.66
2022-12-24T17:15:42.836Z,81.72
2022-12-24T17:20:51.374Z,81.65
2022-12-24T17:25:58.179Z,81.86
2022-12-24T17:31:08.836Z,81.73
2022-12-24T17:36:14.397Z,81.72
2022-12-24T17:41:21.425Z,81.79
2022-12-24T17:46:27.071Z,81.98
2022-12-24T17:51:33.583Z,81.43
2022-12-24T17:56:39.165Z,81.91
2022-12-24T18:01:44.946Z,82.17
2022-12-24T18:06:51.318Z,82.04
2022-12-24T18:11:57.952Z,82.07
2022-12-24T18:17:03.801Z,82.06
2022-12-24T18:22:16.909Z,82.27
2022-12-24T18:27:23.570Z,82.43
2022-12-24T18:32:29.052Z,82.58
2022-12-24T18:37:35.076Z,81.68
2022-12-24T18:42:42.385Z,82.24
2022-12-24T18:47:47.850Z,82.69
2022-12-24T18:52:53.315Z,82.70
2022-12-24T18:57:59.315Z,82.69
2022-12-24T19:03:04.903Z,82.55
2022-12-24T19:08:46.563Z,82.51
2022-12-24T19:13:17.524Z,82.60
2022-12-24T19:18:23.112Z,82.98
2022-12-24T19:23:28.592Z,83.00
2022-12-24T19:28:35.077Z,82.81
2022-12-24T19:33:43.812Z,83.02
2022-12-24T19:38:50.028Z,82.75
2022-12-24T19:43:58.349Z,83.30
2022-12-24T19:49:06.512Z,82.99
2022-12-24T19:54:18.861Z,83.04
2022-12-24T19:59:20.950Z,83.38
2022-12-24T20:04:26.488Z,83.38
2022-12-24T20:09:34.052Z,83.36
2022-12-24T20:14:39.620Z,82.91
2022-12-24T20:19:45.143Z,83.40
2022-12-24T20:24:50.538Z,83.71
2022-12-24T20:29:56.004Z,83.51
2022-12-24T20:35:01.388Z,83.54
2022-12-24T20:40:07.658Z,83.78
2022-12-24T20:45:13.189Z,83.98
2022-12-24T20:50:20.939Z,84.34
2022-12-24T20:55:26.658Z,84.30
2022-12-24T21:00:32.302Z,84.38
2022-12-24T21:05:37.758Z,84.84
2022-12-24T21:10:43.389Z,84.54
2022-12-24T21:15:48.957Z,84.92
2022-12-24T21:20:56.041Z,84.89
2022-12-24T21:26:04.005Z,84.90
2022-12-24T21:31:14.090Z,85.07
2022-12-24T21:36:20.920Z,84.96
2022-12-24T21:41:27.355Z,85.36
2022-12-24T21:46:32.939Z,85.41
2022-12-24T21:51:39.053Z,85.18
2022-12-24T21:57:03.028Z,85.21
2022-12-24T22:02:11.122Z,85.13
2022-12-24T22:07:46.072Z,85.63
2022-12-24T22:12:51.629Z,84.61
2022-12-24T22:17:57.166Z,84.36
2022-12-24T22:23:02.646Z,84.75
2022-12-24T22:28:08.936Z,84.88
2022-12-24T22:33:14.544Z,85.00
2022-12-24T22:38:20.036Z,85.22
2022-12-24T22:43:26.241Z,85.32
2022-12-24T22:48:31.713Z,85.24
2022-12-24T22:53:38.045Z,84.90
2022-12-24T22:58:43.685Z,85.21
2022-12-24T23:03:49.279Z,85.40
2022-12-24T23:08:54.752Z,85.48
2022-12-24T23:14:18.026Z,85.57
2022-12-24T23:19:23.549Z,85.90
2022-12-24T23:24:29.682Z,86.30
2022-12-24T23:29:35.615Z,86.58
2022-12-24T23:34:41.119Z,86.59
2022-12-24T23:39:46.599Z,86.85
2022-12-24T23:44:52.264Z,87.23
2022-12-24T23:49:57.793Z,87.31
2022-12-24T23:55:03.251Z,87.31
